createdAt,value
2023-02-21T00:01:06.943Z,29.92
2023-02-21T00:03:52.737Z,29.55
2023-02-21T00:06:38.281Z,30.52
2023-02-21T00:09:23.776Z,31.10
2023-02-21T00:12:10.311Z,28.95
2023-02-21T00:14:56.525Z,30.45
2023-02-21T00:17:42.491Z,26.67
2023-02-21T00:20:29.766Z,29.15
2023-02-21T00:23:15.167Z,30.10
2023-02-21T00:26:00.402Z,29.98
2023-02-21T00:28:45.713Z,28.55
2023-02-21T00:31:31.054Z,29.55
2023-02-21T00:34:16.410Z,27.98
2023-02-21T00:37:01.897Z,26.08
2023-02-21T00:39:47.172Z,27.55
2023-02-21T00:42:32.863Z,27.58
2023-02-21T00:45:18.739Z,31.13
2023-02-21T00:48:04.024Z,31.98
2023-02-21T00:50:49.580Z,31.92
2023-02-21T00:53:35.148Z,26.80
2023-02-21T00:56:20.827Z,27.80
2023-02-21T00:59:07.230Z,27.00
2023-02-21T01:01:54.102Z,25.88
2023-02-21T01:04:39.509Z,27.73
2023-02-21T01:07:25.004Z,24.73
2023-02-21T01:10:10.525Z,24.92
2023-02-21T01:12:56.782Z,31.33
2023-02-21T01:15:42.473Z,25.05
2023-02-21T01:18:27.667Z,22.63
2023-02-21T01:21:14.382Z,26.40
2023-02-21T01:23:59.792Z,22.42
2023-02-21T01:26:45.312Z,25.38
2023-02-21T01:29:30.897Z,23.58
2023-02-21T01:32:16.343Z,22.58
2023-02-21T01:35:01.576Z,21.80
2023-02-21T01:37:50.284Z,23.27
2023-02-21T01:40:36.024Z,23.17
2023-02-21T01:43:21.837Z,26.98
2023-02-21T01:46:14.405Z,21.90
2023-02-21T01:48:59.771Z,21.50
2023-02-21T01:51:50.501Z,24.27
2023-02-21T01:54:38.223Z,20.08
2023-02-21T01:57:25.511Z,19.98
2023-02-21T02:00:13.128Z,21.85
2023-02-21T02:03:23.200Z,23.27
2023-02-21T02:06:35.006Z,23.38
2023-02-21T02:09:39.360Z,20.42
2023-02-21T02:12:25.430Z,20.58
2023-02-21T02:15:20.627Z,20.38
2023-02-21T02:18:05.751Z,18.48
2023-02-21T02:20:34.663Z,18.83
2023-02-21T02:23:22.884Z,17.30
2023-02-21T02:26:15.047Z,19.67
2023-02-21T02:29:16.727Z,17.00
2023-02-21T02:32:14.818Z,17.70
2023-02-21T02:34:50.471Z,20.80
2023-02-21T02:37:30.401Z,20.30
2023-02-21T02:40:10.020Z,20.17
2023-02-21T02:43:02.380Z,18.73
2023-02-21T02:45:43.511Z,18.27
2023-02-21T02:48:28.391Z,18.73
2023-02-21T02:50:55.979Z,19.90
2023-02-21T02:53:26.801Z,20.15
2023-02-21T02:55:58.793Z,20.52
2023-02-21T02:58:30.002Z,18.73
2023-02-21T03:01:18.350Z,18.80
2023-02-21T03:04:17.094Z,17.08
2023-02-21T03:07:04.020Z,22.65
2023-02-21T03:09:49.074Z,16.42
2023-02-21T03:12:40.004Z,17.30
2023-02-21T03:15:09.739Z,20.83
2023-02-21T03:17:49.026Z,18.88
2023-02-21T03:20:17.071Z,19.85
2023-02-21T03:22:45.675Z,19.30
2023-02-21T03:25:15.177Z,17.48
2023-02-21T03:27:43.743Z,19.33
2023-02-21T03:30:11.918Z,16.90
2023-02-21T03:32:48.555Z,19.13
2023-02-21T03:35:15.469Z,18.17
2023-02-21T03:37:47.712Z,15.98
2023-02-21T03:40:21.504Z,19.05
2023-02-21T03:42:50.251Z,17.30
2023-02-21T03:45:17.334Z,17.25
2023-02-21T03:47:44.403Z,16.65
2023-02-21T03:50:11.492Z,17.92
2023-02-21T03:52:38.470Z,18.65
2023-02-21T03:55:06.241Z,17.25
2023-02-21T03:57:33.084Z,16.98
2023-02-21T03:59:59.800Z,17.60
2023-02-21T04:02:28.208Z,18.42
2023-02-21T04:04:55.123Z,17.50
2023-02-21T04:07:22.268Z,18.10
2023-02-21T04:09:49.209Z,17.23
2023-02-21T04:12:17.585Z,16.55
2023-02-21T04:14:44.381Z,17.45
2023-02-21T04:17:11.152Z,17.10
2023-02-21T04:19:37.925Z,17.10
2023-02-21T04:22:05.059Z,19.67
2023-02-21T04:24:31.790Z,19.42
2023-02-21T04:26:59.924Z,19.52
2023-02-21T04:29:26.654Z,18.55
2023-02-21T04:31:54.213Z,17.88
2023-02-21T04:34:21.322Z,17.80
2023-02-21T04:36:48.093Z,17.95
2023-02-21T04:39:14.933Z,17.73
2023-02-21T04:41:42.029Z,19.02
2023-02-21T04:44:10.388Z,17.75
2023-02-21T04:46:37.717Z,18.45
2023-02-21T04:49:04.577Z,21.30
2023-02-21T04:51:31.604Z,21.05
2023-02-21T04:53:58.336Z,22.20
2023-02-21T04:56:27.488Z,17.77
2023-02-21T04:58:54.374Z,20.17
2023-02-21T05:01:23.463Z,20.25
2023-02-21T05:03:50.310Z,19.58
2023-02-21T05:06:21.915Z,17.88
2023-02-21T05:08:49.042Z,21.70
2023-02-21T05:11:16.447Z,19.77
2023-02-21T05:13:43.650Z,19.63
2023-02-21T05:16:11.006Z,18.17
2023-02-21T05:18:38.688Z,19.23
2023-02-21T05:21:11.102Z,20.77
2023-02-21T05:23:40.933Z,18.88
2023-02-21T05:26:11.404Z,17.15
2023-02-21T05:28:39.737Z,21.73
2023-02-21T05:31:07.019Z,19.85
2023-02-21T05:33:34.038Z,17.90
2023-02-21T05:36:00.824Z,19.55
2023-02-21T05:38:27.568Z,20.77
2023-02-21T05:40:54.705Z,20.27
2023-02-21T05:43:21.808Z,17.30
2023-02-21T05:45:48.994Z,21.05
2023-02-21T05:48:18.058Z,21.13
2023-02-21T05:50:45.464Z,18.73
2023-02-21T05:53:13.654Z,20.52
2023-02-21T05:55:42.692Z,19.77
2023-02-21T05:58:09.453Z,21.13
2023-02-21T06:00:36.205Z,20.13
2023-02-21T06:03:04.920Z,20.08
2023-02-21T06:05:32.094Z,18.63
2023-02-21T06:07:59.814Z,18.30
2023-02-21T06:10:26.516Z,21.40
2023-02-21T06:12:54.312Z,20.55
2023-02-21T06:15:21.011Z,21.27
2023-02-21T06:17:47.844Z,18.63
2023-02-21T06:20:16.737Z,24.33
2023-02-21T06:22:45.013Z,17.90
2023-02-21T06:25:11.825Z,20.33
2023-02-21T06:27:38.861Z,22.33
2023-02-21T06:30:06.655Z,19.45
2023-02-21T06:32:33.834Z,21.73
2023-02-21T06:35:00.681Z,19.10
2023-02-21T06:37:28.560Z,18.83
2023-02-21T06:39:57.828Z,18.00
2023-02-21T06:42:26.781Z,18.25
2023-02-21T06:44:53.497Z,22.75
2023-02-21T06:47:24.569Z,17.63
2023-02-21T06:49:57.227Z,19.05
2023-02-21T06:52:24.865Z,19.30
2023-02-21T06:54:51.972Z,22.83
2023-02-21T06:57:19.164Z,19.23
2023-02-21T06:59:54.518Z,19.92
2023-02-21T07:02:21.218Z,19.00
2023-02-21T07:04:49.894Z,18.63
2023-02-21T07:07:16.781Z,21.13
2023-02-21T07:09:47.989Z,19.77
2023-02-21T07:12:14.800Z,22.00
2023-02-21T07:14:42.506Z,19.70
2023-02-21T07:17:09.430Z,21.10
2023-02-21T07:19:37.234Z,22.67
2023-02-21T07:22:04.800Z,19.42
2023-02-21T07:24:36.564Z,22.77
2023-02-21T07:27:04.032Z,21.90
2023-02-21T07:29:33.583Z,22.88
2023-02-21T07:32:00.982Z,20.92
2023-02-21T07:34:28.070Z,23.38
2023-02-21T07:36:54.773Z,21.80
2023-02-21T07:39:21.701Z,22.08
2023-02-21T07:41:48.517Z,19.38
2023-02-21T07:44:18.230Z,20.90
2023-02-21T07:46:46.662Z,20.65
2023-02-21T07:49:13.460Z,24.90
2023-02-21T07:51:40.302Z,25.30
2023-02-21T07:54:06.990Z,20.00
2023-02-21T07:56:33.728Z,21.88
2023-02-21T07:59:00.476Z,22.55
2023-02-21T08:01:29.598Z,21.02
2023-02-21T08:03:56.417Z,18.75
2023-02-21T08:06:23.421Z,28.05
2023-02-21T08:08:50.833Z,21.38
2023-02-21T08:11:20.816Z,25.10
2023-02-21T08:13:47.682Z,22.60
2023-02-21T08:16:14.643Z,19.42
2023-02-21T08:18:42.770Z,20.27
2023-02-21T08:21:10.621Z,22.88
2023-02-21T08:23:37.615Z,19.13
2023-02-21T08:26:05.743Z,18.10
2023-02-21T08:28:32.565Z,20.90
2023-02-21T08:31:00.078Z,19.92
2023-02-21T08:33:26.918Z,21.45
2023-02-21T08:35:55.056Z,21.73
2023-02-21T08:38:23.338Z,20.02
2023-02-21T08:40:52.055Z,23.35
2023-02-21T08:43:18.855Z,20.52
2023-02-21T08:45:45.659Z,20.10
2023-02-21T08:48:13.740Z,20.05
2023-02-21T08:50:40.550Z,20.45
2023-02-21T08:53:08.373Z,22.08
2023-02-21T08:55:35.079Z,20.30
2023-02-21T08:58:02.936Z,20.35
2023-02-21T09:00:29.698Z,21.17
2023-02-21T09:02:57.585Z,17.15
2023-02-21T09:05:27.868Z,19.90
2023-02-21T09:07:59.307Z,23.55
2023-02-21T09:10:28.242Z,20.02
2023-02-21T09:12:57.568Z,28.50
2023-02-21T09:15:24.354Z,29.10
2023-02-21T09:17:51.512Z,30.65
2023-02-21T09:20:24.928Z,29.27
2023-02-21T09:22:52.897Z,31.25
2023-02-21T09:25:24.618Z,28.80
2023-02-21T09:27:54.078Z,24.73
2023-02-21T09:30:24.544Z,24.73
2023-02-21T09:32:51.779Z,24.58
2023-02-21T09:35:19.859Z,23.92
2023-02-21T09:37:47.739Z,26.52
2023-02-21T09:40:38.905Z,26.63
2023-02-21T09:43:20.342Z,20.30
2023-02-21T09:45:53.053Z,23.08
2023-02-21T09:48:23.405Z,25.20
2023-02-21T09:50:54.125Z,27.38
2023-02-21T09:53:24.821Z,24.10
2023-02-21T09:55:55.438Z,22.10
2023-02-21T09:58:23.754Z,23.33
2023-02-21T10:00:50.628Z,21.00
2023-02-21T10:03:46.235Z,17.88
2023-02-21T10:06:35.937Z,21.88
2023-02-21T10:09:30.100Z,21.02
2023-02-21T10:12:20.363Z,24.23
2023-02-21T10:15:19.191Z,18.10
2023-02-21T10:18:05.897Z,22.08
2023-02-21T10:20:49.839Z,21.90
2023-02-21T10:23:24.730Z,23.88
2023-02-21T10:25:55.743Z,25.90
2023-02-21T10:28:27.556Z,24.25
2023-02-21T10:31:00.053Z,21.42
2023-02-21T10:33:27.406Z,20.00
2023-02-21T10:35:55.227Z,16.95
2023-02-21T10:38:26.080Z,17.98
2023-02-21T10:40:59.555Z,18.63
2023-02-21T10:43:34.406Z,17.60
2023-02-21T10:46:39.844Z,18.98
2023-02-21T10:49:24.536Z,15.60
2023-02-21T10:52:19.433Z,17.38
2023-02-21T10:55:01.341Z,17.17
2023-02-21T10:57:30.788Z,16.00
2023-02-21T10:59:57.719Z,16.13
2023-02-21T11:02:35.770Z,16.67
2023-02-21T11:05:16.762Z,14.10
2023-02-21T11:08:08.593Z,15.32
2023-02-21T11:10:54.584Z,16.25
2023-02-21T11:13:22.845Z,16.13
2023-02-21T11:16:07.010Z,17.75
2023-02-21T11:18:33.796Z,19.08
2023-02-21T11:21:13.841Z,17.25
2023-02-21T11:24:02.798Z,14.98
2023-02-21T11:26:35.405Z,17.17
2023-02-21T11:29:18.498Z,14.85
2023-02-21T11:31:45.755Z,17.80
2023-02-21T11:34:15.061Z,16.08
2023-02-21T11:36:45.730Z,19.73
2023-02-21T11:39:29.619Z,16.88
2023-02-21T11:42:29.415Z,15.93
2023-02-21T11:45:18.584Z,17.60
2023-02-21T11:47:55.905Z,15.80
2023-02-21T11:50:27.279Z,15.30
2023-02-21T11:53:27.024Z,16.33
2023-02-21T11:56:14.468Z,17.35
2023-02-21T11:58:54.423Z,17.63
2023-02-21T12:02:06.024Z,17.13
2023-02-21T12:04:44.457Z,23.27
2023-02-21T12:07:43.682Z,16.15
2023-02-21T12:10:25.461Z,15.20
2023-02-21T12:12:58.415Z,16.83
2023-02-21T12:15:35.085Z,14.95
2023-02-21T12:18:26.128Z,18.33
2023-02-21T12:21:09.817Z,17.33
2023-02-21T12:24:16.417Z,15.38
2023-02-21T12:26:55.241Z,16.98
2023-02-21T12:29:36.642Z,14.70
2023-02-21T12:32:44.997Z,14.70
2023-02-21T12:35:34.317Z,13.68
2023-02-21T12:38:19.527Z,14.57
2023-02-21T12:41:09.011Z,15.02
2023-02-21T12:43:56.067Z,16.00
2023-02-21T12:46:45.604Z,14.63
2023-02-21T12:49:21.005Z,14.73
2023-02-21T12:51:52.162Z,14.25
2023-02-21T12:54:44.165Z,10.35
2023-02-21T12:57:18.610Z,13.05
2023-02-21T13:00:17.709Z,11.88
2023-02-21T13:03:20.033Z,12.35
2023-02-21T13:05:51.941Z,12.13
2023-02-21T13:08:27.777Z,10.63
2023-02-21T13:11:21.919Z,15.52
2023-02-21T13:13:50.051Z,13.48
2023-02-21T13:16:18.788Z,14.18
2023-02-21T13:18:59.368Z,12.77
2023-02-21T13:21:56.069Z,14.90
2023-02-21T13:25:03.476Z,11.70
2023-02-21T13:27:59.651Z,16.02
2023-02-21T13:30:41.716Z,13.68
2023-02-21T13:33:27.153Z,16.23
2023-02-21T13:35:59.921Z,17.02
2023-02-21T13:38:32.385Z,12.40
2023-02-21T13:41:10.203Z,13.02
2023-02-21T13:43:45.408Z,12.25
2023-02-21T13:46:25.968Z,14.65
2023-02-21T13:49:30.122Z,11.80
2023-02-21T13:52:23.889Z,12.83
2023-02-21T13:55:15.371Z,11.47
2023-02-21T13:57:45.038Z,13.00
2023-02-21T14:00:26.973Z,10.65
2023-02-21T14:03:06.787Z,9.73
2023-02-21T14:05:59.975Z,12.70
2023-02-21T14:08:32.188Z,9.95
2023-02-21T14:11:00.061Z,9.90
2023-02-21T14:13:40.223Z,11.38
2023-02-21T14:16:13.568Z,11.95
2023-02-21T14:18:49.253Z,7.80
2023-02-21T14:21:23.548Z,10.38
2023-02-21T14:24:01.419Z,11.07
2023-02-21T14:26:51.317Z,9.27
2023-02-21T14:29:34.755Z,10.93
2023-02-21T14:32:02.626Z,12.40
2023-02-21T14:34:47.779Z,9.88
2023-02-21T14:37:55.663Z,9.45
2023-02-21T14:40:40.397Z,15.50
2023-02-21T14:43:48.008Z,16.85
2023-02-21T14:46:44.971Z,12.70
2023-02-21T14:49:18.097Z,21.08
2023-02-21T14:51:49.330Z,24.92
2023-02-21T14:54:53.915Z,23.52
2023-02-21T14:57:35.073Z,25.90
2023-02-21T15:00:34.311Z,24.98
2023-02-21T15:03:20.812Z,22.83
2023-02-21T15:05:50.363Z,22.75
2023-02-21T15:08:20.113Z,21.45
2023-02-21T15:10:49.148Z,27.15
2023-02-21T15:13:31.723Z,25.77
2023-02-21T15:16:08.502Z,27.05
2023-02-21T15:18:56.617Z,23.27
2023-02-21T15:21:24.819Z,24.75
2023-02-21T15:24:02.536Z,26.35
2023-02-21T15:26:33.316Z,32.03
2023-02-21T15:29:14.759Z,28.25
2023-02-21T15:31:45.108Z,32.78
2023-02-21T15:34:22.114Z,34.35
2023-02-21T15:37:08.748Z,32.13
2023-02-21T15:39:41.917Z,36.75
2023-02-21T15:42:12.221Z,33.10
2023-02-21T15:44:45.871Z,36.00
2023-02-21T15:47:22.136Z,37.33
2023-02-21T15:50:12.151Z,39.97
2023-02-21T15:52:46.850Z,37.85
2023-02-21T15:55:15.562Z,40.92
2023-02-21T15:57:43.874Z,40.17
2023-02-21T16:00:27.016Z,43.10
2023-02-21T16:03:29.193Z,40.55
2023-02-21T16:06:32.390Z,42.55
2023-02-21T16:09:06.670Z,40.45
2023-02-21T16:11:44.601Z,36.85
2023-02-21T16:14:35.140Z,42.22
2023-02-21T16:17:19.922Z,38.30
2023-02-21T16:19:53.817Z,41.78
2023-02-21T16:22:26.681Z,43.60
2023-02-21T16:25:20.334Z,41.70
2023-02-21T16:27:52.354Z,42.25
2023-02-21T16:30:34.681Z,44.53
2023-02-21T16:33:04.381Z,47.72
2023-02-21T16:35:32.482Z,49.80
2023-02-21T16:38:00.670Z,41.25
2023-02-21T16:40:35.637Z,44.35
2023-02-21T16:43:04.600Z,46.63
2023-02-21T16:45:32.735Z,48.50
2023-02-21T16:48:07.179Z,48.85
2023-02-21T16:50:37.002Z,50.30
2023-02-21T16:53:05.968Z,47.38
2023-02-21T16:55:32.756Z,46.17
2023-02-21T16:58:07.273Z,46.38
2023-02-21T17:00:34.788Z,45.90
2023-02-21T17:03:02.724Z,46.45
2023-02-21T17:05:29.606Z,45.35
2023-02-21T17:07:58.545Z,40.65
2023-02-21T17:10:27.715Z,41.55
2023-02-21T17:12:55.244Z,38.55
2023-02-21T17:15:23.689Z,39.95
2023-02-21T17:17:59.568Z,37.50
2023-02-21T17:20:27.110Z,40.97
2023-02-21T17:22:54.707Z,41.88
2023-02-21T17:25:22.718Z,36.10
2023-02-21T17:27:52.752Z,36.72
2023-02-21T17:30:25.950Z,38.42
2023-02-21T17:32:53.151Z,39.13
2023-02-21T17:35:22.436Z,35.78
2023-02-21T17:37:52.269Z,39.30
2023-02-21T17:40:22.138Z,36.72
2023-02-21T17:42:49.020Z,37.83
2023-02-21T17:45:18.918Z,41.15
2023-02-21T17:47:48.178Z,38.67
2023-02-21T17:50:15.249Z,40.28
2023-02-21T17:52:42.349Z,40.00
2023-02-21T17:55:16.851Z,40.92
2023-02-21T17:57:43.771Z,43.72
2023-02-21T18:00:16.927Z,44.35
2023-02-21T18:02:43.790Z,37.22
2023-02-21T18:05:10.579Z,45.08
2023-02-21T18:07:38.457Z,57.25
2023-02-21T18:10:05.569Z,61.22
2023-02-21T18:12:33.543Z,67.35
2023-02-21T18:15:00.942Z,68.90
2023-02-21T18:17:27.721Z,68.45
2023-02-21T18:19:56.754Z,68.80
2023-02-21T18:22:25.055Z,63.88
2023-02-21T18:24:54.539Z,64.80
2023-02-21T18:27:22.370Z,62.50
2023-02-21T18:29:54.598Z,62.10
2023-02-21T18:32:25.163Z,63.75
2023-02-21T18:34:52.128Z,65.53
2023-02-21T18:37:20.165Z,64.95
2023-02-21T18:39:50.555Z,67.32
2023-02-21T18:42:20.987Z,58.50
2023-02-21T18:44:48.389Z,57.10
2023-02-21T18:47:16.993Z,47.33
2023-02-21T18:49:44.575Z,56.33
2023-02-21T18:52:14.039Z,52.92
2023-02-21T18:54:45.606Z,54.88
2023-02-21T18:57:13.449Z,55.38
2023-02-21T18:59:43.134Z,57.40
2023-02-21T19:02:14.643Z,58.35
2023-02-21T19:04:43.210Z,64.18
2023-02-21T19:07:13.373Z,57.80
2023-02-21T19:09:40.898Z,52.50
2023-02-21T19:12:10.520Z,54.40
2023-02-21T19:14:38.150Z,58.10
2023-02-21T19:17:07.795Z,57.88
2023-02-21T19:19:35.413Z,54.17
2023-02-21T19:22:03.413Z,56.58
2023-02-21T19:24:30.367Z,54.25
2023-02-21T19:26:58.274Z,58.95
2023-02-21T19:29:25.026Z,61.40
2023-02-21T19:31:54.159Z,52.00
2023-02-21T19:34:22.265Z,60.95
2023-02-21T19:36:50.326Z,52.55
2023-02-21T19:39:18.773Z,52.08
2023-02-21T19:41:47.728Z,48.03
2023-02-21T19:44:14.578Z,56.80
2023-02-21T19:46:43.848Z,54.90
2023-02-21T19:49:17.976Z,56.53
2023-02-21T19:51:46.433Z,46.53
2023-02-21T19:54:14.591Z,42.33
2023-02-21T19:56:41.333Z,41.33
2023-02-21T19:59:09.638Z,46.85
2023-02-21T20:01:36.882Z,47.08
2023-02-21T20:04:04.180Z,41.90
2023-02-21T20:06:36.503Z,40.97
2023-02-21T20:09:06.558Z,40.63
2023-02-21T20:11:33.339Z,38.13
2023-02-21T20:14:01.730Z,35.40
2023-02-21T20:16:29.942Z,41.65
2023-02-21T20:18:57.478Z,45.70
2023-02-21T20:21:27.463Z,44.15
2023-02-21T20:23:57.605Z,50.08
2023-02-21T20:26:24.799Z,43.15
2023-02-21T20:28:52.457Z,43.22
2023-02-21T20:31:21.870Z,40.47
2023-02-21T20:33:49.042Z,44.97
2023-02-21T20:36:16.472Z,45.05
2023-02-21T20:38:43.987Z,45.20
2023-02-21T20:41:14.490Z,45.33
2023-02-21T20:43:41.505Z,43.40
2023-02-21T20:46:10.195Z,48.50
2023-02-21T20:48:38.934Z,42.55
2023-02-21T20:51:08.562Z,43.83
2023-02-21T20:53:36.722Z,44.17
2023-02-21T20:56:05.194Z,45.80
2023-02-21T20:58:31.990Z,42.00
2023-02-21T21:00:59.764Z,45.40
2023-02-21T21:03:29.983Z,39.15
2023-02-21T21:05:56.815Z,42.33
2023-02-21T21:08:23.646Z,43.92
2023-02-21T21:10:50.963Z,44.22
2023-02-21T21:13:19.339Z,39.05
2023-02-21T21:15:46.062Z,41.33
2023-02-21T21:18:12.823Z,44.33
2023-02-21T21:20:40.089Z,42.33
2023-02-21T21:23:08.840Z,37.17
2023-02-21T21:25:35.627Z,39.47
2023-02-21T21:28:06.449Z,35.28
2023-02-21T21:30:33.343Z,36.78
2023-02-21T21:33:01.179Z,31.30
2023-02-21T21:35:30.076Z,29.92
2023-02-21T21:37:59.197Z,26.02
2023-02-21T21:40:27.085Z,37.90
2023-02-21T21:42:54.453Z,29.20
2023-02-21T21:45:25.249Z,29.25
2023-02-21T21:47:54.727Z,30.58
2023-02-21T21:50:22.362Z,40.40
2023-02-21T21:52:55.247Z,50.33
2023-02-21T21:55:25.551Z,65.38
2023-02-21T21:57:56.008Z,65.25
2023-02-21T22:00:28.563Z,65.15
2023-02-21T22:02:58.126Z,65.05
2023-02-21T22:05:30.630Z,65.20
2023-02-21T22:07:58.313Z,70.85
2023-02-21T22:10:26.702Z,75.28
2023-02-21T22:12:56.534Z,83.43
2023-02-21T22:15:27.883Z,68.43
2023-02-21T22:17:55.465Z,64.38
2023-02-21T22:20:31.069Z,58.83
2023-02-21T22:22:59.131Z,58.97
2023-02-21T22:25:27.800Z,54.00
2023-02-21T22:27:54.563Z,58.95
2023-02-21T22:30:23.114Z,55.90
2023-02-21T22:32:52.401Z,50.65
2023-02-21T22:35:20.544Z,46.00
2023-02-21T22:37:48.446Z,48.90
2023-02-21T22:40:18.350Z,53.55
2023-02-21T22:42:45.433Z,59.72
2023-02-21T22:45:12.457Z,49.22
2023-02-21T22:47:39.430Z,43.30
2023-02-21T22:50:08.495Z,46.38
2023-02-21T22:52:36.194Z,39.92
2023-02-21T22:55:03.021Z,46.03
2023-02-21T22:57:30.690Z,38.42
2023-02-21T22:59:57.963Z,39.35
2023-02-21T23:02:25.945Z,35.13
2023-02-21T23:04:53.541Z,34.78
2023-02-21T23:07:24.592Z,33.85
2023-02-21T23:09:52.069Z,31.92
2023-02-21T23:12:19.739Z,35.00
2023-02-21T23:14:48.114Z,36.17
2023-02-21T23:17:15.561Z,30.80
2023-02-21T23:19:42.476Z,32.38
2023-02-21T23:22:10.578Z,42.67
2023-02-21T23:24:38.481Z,38.03
2023-02-21T23:27:08.816Z,37.45
2023-02-21T23:29:39.400Z,38.70
2023-02-21T23:32:10.468Z,36.38
2023-02-21T23:34:40.996Z,34.67
2023-02-21T23:37:09.361Z,40.28
2023-02-21T23:39:40.922Z,37.15
2023-02-21T23:42:07.622Z,38.55
2023-02-21T23:44:36.394Z,39.05
2023-02-21T23:47:05.925Z,35.88
2023-02-21T23:49:33.678Z,39.00
2023-02-21T23:52:01.721Z,31.75
2023-02-21T23:54:28.699Z,40.03
2023-02-21T23:57:01.040Z,40.42
2023-02-21T23:59:28.623Z,40.53
